sensor_id;sensor_type;location;lat;lon;timestamp;pressure;altitude;pressure_sealevel;temperature
77728;BMP280;68312;53.502;10.030;2023-10-13T00:01:55;101138.16;;;12.62
77728;BMP280;68312;53.502;10.030;2023-10-13T00:04:23;101135.97;;;12.64
77728;BMP280;68312;53.502;10.030;2023-10-13T00:06:58;101131.19;;;12.66
77728;BMP280;68312;53.502;10.030;2023-10-13T00:09:25;101125.91;;;12.66
77728;BMP280;68312;53.502;10.030;2023-10-13T00:11:57;101124.84;;;12.67
77728;BMP280;68312;53.502;10.030;2023-10-13T00:14:23;101125.25;;;12.69
77728;BMP280;68312;53.502;10.030;2023-10-13T00:16:58;101117.03;;;12.71
77728;BMP280;68312;53.502;10.030;2023-10-13T00:19:37;101115.16;;;12.71
77728;BMP280;68312;53.502;10.030;2023-10-13T00:22:05;101110.81;;;12.75
77728;BMP280;68312;53.502;10.030;2023-10-13T00:24:39;101110.81;;;12.75
77728;BMP280;68312;53.502;10.030;2023-10-13T00:27:14;101110.81;;;12.75
77728;BMP280;68312;53.502;10.030;2023-10-13T00:29:54;101102.59;;;12.76
77728;BMP280;68312;53.502;10.030;2023-10-13T00:32:44;101107.56;;;12.78
77728;BMP280;68312;53.502;10.030;2023-10-13T00:35:11;101104.59;;;12.79
77728;BMP280;68312;53.502;10.030;2023-10-13T00:37:52;101095.59;;;12.80
77728;BMP280;68312;53.502;10.030;2023-10-13T00:40:22;101093.72;;;12.81
77728;BMP280;68312;53.502;10.030;2023-10-13T00:43:06;101091.53;;;12.83
77728;BMP280;68312;53.502;10.030;2023-10-13T00:45:45;101082.22;;;12.85
77728;BMP280;68312;53.502;10.030;2023-10-13T00:48:36;101077.41;;;12.87
77728;BMP280;68312;53.502;10.030;2023-10-13T00:51:12;101076.31;;;12.88
77728;BMP280;68312;53.502;10.030;2023-10-13T00:53:59;101063.91;;;12.89
77728;BMP280;68312;53.502;10.030;2023-10-13T00:56:33;101063.91;;;12.89
77728;BMP280;68312;53.502;10.030;2023-10-13T00:58:59;101069.16;;;12.89
77728;BMP280;68312;53.502;10.030;2023-10-13T01:01:29;101057.97;;;12.92
77728;BMP280;68312;53.502;10.030;2023-10-13T01:03:58;101064.81;;;12.93
77728;BMP280;68312;53.502;10.030;2023-10-13T01:06:28;101052.41;;;12.93
77728;BMP280;68312;53.502;10.030;2023-10-13T01:09:02;101059.66;;;12.96
77728;BMP280;68312;53.502;10.030;2023-10-13T01:11:45;101048.31;;;12.96
77728;BMP280;68312;53.502;10.030;2023-10-13T01:14:19;101040.88;;;12.98
77728;BMP280;68312;53.502;10.030;2023-10-13T01:16:47;101037.13;;;12.99
77728;BMP280;68312;53.502;10.030;2023-10-13T01:19:17;101041.78;;;13.02
77728;BMP280;68312;53.502;10.030;2023-10-13T01:21:49;101031.53;;;13.00
77728;BMP280;68312;53.502;10.030;2023-10-13T01:24:14;101033.56;;;13.03
77728;BMP280;68312;53.502;10.030;2023-10-13T01:26:45;101019.56;;;13.02
77728;BMP280;68312;53.502;10.030;2023-10-13T01:29:16;101010.91;;;13.02
77728;BMP280;68312;53.502;10.030;2023-10-13T01:31:45;101014.28;;;13.02
77728;BMP280;68312;53.502;10.030;2023-10-13T01:34:15;101004.84;;;13.02
77728;BMP280;68312;53.502;10.030;2023-10-13T01:36:48;101021.13;;;13.03
77728;BMP280;68312;53.502;10.030;2023-10-13T01:39:16;101017.41;;;13.04
77728;BMP280;68312;53.502;10.030;2023-10-13T01:41:46;101003.91;;;13.06
77728;BMP280;68312;53.502;10.030;2023-10-13T01:44:21;101011.47;;;13.07
77728;BMP280;68312;53.502;10.030;2023-10-13T01:46:46;100990.38;;;13.07
77728;BMP280;68312;53.502;10.030;2023-10-13T01:49:13;100986.63;;;13.08
77728;BMP280;68312;53.502;10.030;2023-10-13T01:51:41;100979.50;;;13.09
77728;BMP280;68312;53.502;10.030;2023-10-13T01:54:08;100978.88;;;13.12
77728;BMP280;68312;53.502;10.030;2023-10-13T01:56:38;100975.09;;;13.13
77728;BMP280;68312;53.502;10.030;2023-10-13T01:59:10;100964.56;;;13.13
77728;BMP280;68312;53.502;10.030;2023-10-13T02:01:38;100965.31;;;13.13
77728;BMP280;68312;53.502;10.030;2023-10-13T02:04:05;100952.13;;;13.13
77728;BMP280;68312;53.502;10.030;2023-10-13T02:06:35;100953.69;;;13.14
77728;BMP280;68312;53.502;10.030;2023-10-13T02:09:05;100942.50;;;13.17
77728;BMP280;68312;53.502;10.030;2023-10-13T02:11:39;100941.41;;;13.18
77728;BMP280;68312;53.502;10.030;2023-10-13T02:14:06;100934.69;;;13.21
77728;BMP280;68312;53.502;10.030;2023-10-13T02:16:32;100929.88;;;13.23
77728;BMP280;68312;53.502;10.030;2023-10-13T02:18:58;100923.50;;;13.24
77728;BMP280;68312;53.502;10.030;2023-10-13T02:21:30;100913.06;;;13.27
77728;BMP280;68312;53.502;10.030;2023-10-13T02:23:58;100916.16;;;13.29
77728;BMP280;68312;53.502;10.030;2023-10-13T02:26:32;100912.41;;;13.30
77728;BMP280;68312;53.502;10.030;2023-10-13T02:29:02;100907.25;;;13.33
77728;BMP280;68312;53.502;10.030;2023-10-13T02:31:31;100912.97;;;13.35
77728;BMP280;68312;53.502;10.030;2023-10-13T02:33:56;100897.56;;;13.37
77728;BMP280;68312;53.502;10.030;2023-10-13T02:36:22;100889.78;;;13.41
77728;BMP280;68312;53.502;10.030;2023-10-13T02:38:49;100887.56;;;13.43
77728;BMP280;68312;53.502;10.030;2023-10-13T02:41:20;100888.00;;;13.45
77728;BMP280;68312;53.502;10.030;2023-10-13T02:43:53;100887.38;;;13.48
77728;BMP280;68312;53.502;10.030;2023-10-13T02:46:20;100874.59;;;13.50
77728;BMP280;68312;53.502;10.030;2023-10-13T02:48:54;100876.91;;;13.51
77728;BMP280;68312;53.502;10.030;2023-10-13T02:51:22;100867.91;;;13.52
77728;BMP280;68312;53.502;10.030;2023-10-13T02:53:56;100868.00;;;13.56
77728;BMP280;68312;53.502;10.030;2023-10-13T02:56:28;100869.69;;;13.60
77728;BMP280;68312;53.502;10.030;2023-10-13T02:58:55;100862.53;;;13.60
77728;BMP280;68312;53.502;10.030;2023-10-13T03:01:32;100864.03;;;13.61
77728;BMP280;68312;53.502;10.030;2023-10-13T03:04:00;100854.25;;;13.62
77728;BMP280;68312;53.502;10.030;2023-10-13T03:06:28;100852.38;;;13.62
77728;BMP280;68312;53.502;10.030;2023-10-13T03:09:04;100846.75;;;13.64
77728;BMP280;68312;53.502;10.030;2023-10-13T03:11:47;100838.84;;;13.64
77728;BMP280;68312;53.502;10.030;2023-10-13T03:14:15;100836.66;;;13.66
77728;BMP280;68312;53.502;10.030;2023-10-13T03:16:56;100834.44;;;13.68
77728;BMP280;68312;53.502;10.030;2023-10-13T03:19:28;100822.47;;;13.70
77728;BMP280;68312;53.502;10.030;2023-10-13T03:22:02;100821.38;;;13.71
77728;BMP280;68312;53.502;10.030;2023-10-13T03:24:38;100811.22;;;13.73
77728;BMP280;68312;53.502;10.030;2023-10-13T03:27:10;100811.69;;;13.75
77728;BMP280;68312;53.502;10.030;2023-10-13T03:29:42;100814.31;;;13.75
77728;BMP280;68312;53.502;10.030;2023-10-13T03:32:10;100804.53;;;13.76
77728;BMP280;68312;53.502;10.030;2023-10-13T03:34:39;100797.38;;;13.76
77728;BMP280;68312;53.502;10.030;2023-10-13T03:37:18;100801.97;;;13.79
77728;BMP280;68312;53.502;10.030;2023-10-13T03:40:02;100800.88;;;13.80
77728;BMP280;68312;53.502;10.030;2023-10-13T03:42:32;100797.16;;;13.81
77728;BMP280;68312;53.502;10.030;2023-10-13T03:44:57;100795.03;;;13.86
77728;BMP280;68312;53.502;10.030;2023-10-13T03:47:23;100784.91;;;13.88
77728;BMP280;68312;53.502;10.030;2023-10-13T03:49:53;100786.09;;;13.91
77728;BMP280;68312;53.502;10.030;2023-10-13T03:52:39;100777.09;;;13.92
77728;BMP280;68312;53.502;10.030;2023-10-13T03:55:05;100776.84;;;13.97
77728;BMP280;68312;53.502;10.030;2023-10-13T03:57:31;100771.69;;;14.00
77728;BMP280;68312;53.502;10.030;2023-10-13T04:00:03;100764.53;;;14.01
77728;BMP280;68312;53.502;10.030;2023-10-13T04:02:34;100754.06;;;14.04
77728;BMP280;68312;53.502;10.030;2023-10-13T04:05:02;100763.19;;;14.07
77728;BMP280;68312;53.502;10.030;2023-10-13T04:07:34;100752.22;;;14.08
77728;BMP280;68312;53.502;10.030;2023-10-13T04:10:00;100751.59;;;14.11
77728;BMP280;68312;53.502;10.030;2023-10-13T04:12:48;100745.59;;;14.14
77728;BMP280;68312;53.502;10.030;2023-10-13T04:15:32;100750.25;;;14.17
77728;BMP280;68312;53.502;10.030;2023-10-13T04:18:17;100748.78;;;14.19
77728;BMP280;68312;53.502;10.030;2023-10-13T04:21:01;100747.78;;;14.24
77728;BMP280;68312;53.502;10.030;2023-10-13T04:23:44;100740.28;;;14.26
77728;BMP280;68312;53.502;10.030;2023-10-13T04:26:28;100732.03;;;14.27
77728;BMP280;68312;53.502;10.030;2023-10-13T04:29:02;100724.88;;;14.28
77728;BMP280;68312;53.502;10.030;2023-10-13T04:31:35;100725.38;;;14.33
77728;BMP280;68312;53.502;10.030;2023-10-13T04:34:22;100717.88;;;14.35
77728;BMP280;68312;53.502;10.030;2023-10-13T04:36:53;100713.00;;;14.37
77728;BMP280;68312;53.502;10.030;2023-10-13T04:39:36;100708.59;;;14.41
77728;BMP280;68312;53.502;10.030;2023-10-13T04:42:03;100693.16;;;14.43
77728;BMP280;68312;53.502;10.030;2023-10-13T04:44:38;100695.13;;;14.46
77728;BMP280;68312;53.502;10.030;2023-10-13T04:47:13;100687.59;;;14.48
77728;BMP280;68312;53.502;10.030;2023-10-13T04:49:46;100674.81;;;14.50
77728;BMP280;68312;53.502;10.030;2023-10-13T04:52:12;100657.88;;;14.51
77728;BMP280;68312;53.502;10.030;2023-10-13T04:54:42;100660.94;;;14.53
77728;BMP280;68312;53.502;10.030;2023-10-13T04:57:23;100657.16;;;14.54
77728;BMP280;68312;53.502;10.030;2023-10-13T05:00:27;100651.13;;;14.53
77728;BMP280;68312;53.502;10.030;2023-10-13T05:03:11;100653.44;;;14.55
77728;BMP280;68312;53.502;10.030;2023-10-13T05:06:05;100646.75;;;14.61
77728;BMP280;68312;53.502;10.030;2023-10-13T05:08:50;100637.81;;;14.65
77728;BMP280;68312;53.502;10.030;2023-10-13T05:11:44;100624.41;;;14.73
77728;BMP280;68312;53.502;10.030;2023-10-13T05:14:28;100613.91;;;14.77
77728;BMP280;68312;53.502;10.030;2023-10-13T05:17:12;100614.75;;;14.81
77728;BMP280;68312;53.502;10.030;2023-10-13T05:19:57;100613.34;;;14.87
77728;BMP280;68312;53.502;10.030;2023-10-13T05:22:41;100614.25;;;14.94
77728;BMP280;68312;53.502;10.030;2023-10-13T05:25:37;100599.38;;;15.05
77728;BMP280;68312;53.502;10.030;2023-10-13T05:28:21;100606.09;;;15.18
77728;BMP280;68312;53.502;10.030;2023-10-13T05:31:06;100596.88;;;15.30
77728;BMP280;68312;53.502;10.030;2023-10-13T05:33:53;100578.47;;;15.37
77728;BMP280;68312;53.502;10.030;2023-10-13T05:36:47;100579.00;;;15.46
77728;BMP280;68312;53.502;10.030;2023-10-13T05:39:31;100567.44;;;15.54
77728;BMP280;68312;53.502;10.030;2023-10-13T05:42:15;100562.91;;;15.54
77728;BMP280;68312;53.502;10.030;2023-10-13T05:44:59;100566.38;;;15.58
77728;BMP280;68312;53.502;10.030;2023-10-13T05:47:42;100562.38;;;15.68
77728;BMP280;68312;53.502;10.030;2023-10-13T05:50:09;100566.59;;;15.72
77728;BMP280;68312;53.502;10.030;2023-10-13T05:52:48;100568.97;;;15.77
77728;BMP280;68312;53.502;10.030;2023-10-13T05:55:25;100559.13;;;15.78
77728;BMP280;68312;53.502;10.030;2023-10-13T05:58:09;100552.56;;;15.90
77728;BMP280;68312;53.502;10.030;2023-10-13T06:00:53;100545.41;;;15.94
77728;BMP280;68312;53.502;10.030;2023-10-13T06:03:38;100546.59;;;15.97
77728;BMP280;68312;53.502;10.030;2023-10-13T06:06:21;100547.34;;;15.97
77728;BMP280;68312;53.502;10.030;2023-10-13T06:09:05;100549.31;;;16.00
77728;BMP280;68312;53.502;10.030;2023-10-13T06:11:49;100542.13;;;16.01
77728;BMP280;68312;53.502;10.030;2023-10-13T06:14:33;100537.66;;;16.08
77728;BMP280;68312;53.502;10.030;2023-10-13T06:17:17;100543.34;;;16.07
77728;BMP280;68312;53.502;10.030;2023-10-13T06:20:01;100539.22;;;16.09
77728;BMP280;68312;53.502;10.030;2023-10-13T06:22:48;100536.25;;;16.14
77728;BMP280;68312;53.502;10.030;2023-10-13T06:25:33;100524.97;;;16.17
77728;BMP280;68312;53.502;10.030;2023-10-13T06:28:17;100520.00;;;16.15
77728;BMP280;68312;53.502;10.030;2023-10-13T06:31:02;100520.75;;;16.16
77728;BMP280;68312;53.502;10.030;2023-10-13T06:33:34;100521.56;;;16.20
77728;BMP280;68312;53.502;10.030;2023-10-13T06:36:03;100517.03;;;16.20
77728;BMP280;68312;53.502;10.030;2023-10-13T06:38:35;100508.31;;;16.20
77728;BMP280;68312;53.502;10.030;2023-10-13T06:41:07;100512.88;;;16.23
77728;BMP280;68312;53.502;10.030;2023-10-13T06:43:33;100515.94;;;16.21
77728;BMP280;68312;53.502;10.030;2023-10-13T06:46:11;100513.19;;;16.18
77728;BMP280;68312;53.502;10.030;2023-10-13T06:48:41;100506.81;;;16.22
77728;BMP280;68312;53.502;10.030;2023-10-13T06:51:07;100504.56;;;16.21
77728;BMP280;68312;53.502;10.030;2023-10-13T06:53:51;100500.06;;;16.25
77728;BMP280;68312;53.502;10.030;2023-10-13T06:56:21;100501.94;;;16.24
77728;BMP280;68312;53.502;10.030;2023-10-13T06:58:50;100486.94;;;16.32
77728;BMP280;68312;53.502;10.030;2023-10-13T07:01:16;100491.06;;;16.33
77728;BMP280;68312;53.502;10.030;2023-10-13T07:03:47;100479.69;;;16.32
77728;BMP280;68312;53.502;10.030;2023-10-13T07:06:18;100478.22;;;16.34
77728;BMP280;68312;53.502;10.030;2023-10-13T07:08:45;100466.19;;;16.40
77728;BMP280;68312;53.502;10.030;2023-10-13T07:11:17;100464.69;;;16.43
77728;BMP280;68312;53.502;10.030;2023-10-13T07:14:02;100469.59;;;16.41
77728;BMP280;68312;53.502;10.030;2023-10-13T07:16:43;100464.31;;;16.41
77728;BMP280;68312;53.502;10.030;2023-10-13T07:19:23;100462.50;;;16.48
77728;BMP280;68312;53.502;10.030;2023-10-13T07:21:53;100460.94;;;16.47
77728;BMP280;68312;53.502;10.030;2023-10-13T07:24:37;100463.28;;;16.52
77728;BMP280;68312;53.502;10.030;2023-10-13T07:27:05;100454.97;;;16.54
77728;BMP280;68312;53.502;10.030;2023-10-13T07:29:31;100454.63;;;16.55
77728;BMP280;68312;53.502;10.030;2023-10-13T07:32:01;100448.91;;;16.53
77728;BMP280;68312;53.502;10.030;2023-10-13T07:34:37;100446.22;;;16.50
77728;BMP280;68312;53.502;10.030;2023-10-13T07:37:04;100446.69;;;16.55
77728;BMP280;68312;53.502;10.030;2023-10-13T07:39:33;100437.22;;;16.58
77728;BMP280;68312;53.502;10.030;2023-10-13T07:42:04;100435.31;;;16.58
77728;BMP280;68312;53.502;10.030;2023-10-13T07:44:40;100409.19;;;16.57
77728;BMP280;68312;53.502;10.030;2023-10-13T07:47:11;100401.63;;;16.59
77728;BMP280;68312;53.502;10.030;2023-10-13T07:49:38;100401.63;;;16.59
77728;BMP280;68312;53.502;10.030;2023-10-13T07:52:08;100382.69;;;16.60
77728;BMP280;68312;53.502;10.030;2023-10-13T07:54:48;100383.09;;;16.59
77728;BMP280;68312;53.502;10.030;2023-10-13T07:57:35;100370.59;;;16.62
77728;BMP280;68312;53.502;10.030;2023-10-13T08:00:01;100364.91;;;16.60
77728;BMP280;68312;53.502;10.030;2023-10-13T08:02:58;100361.50;;;16.60
77728;BMP280;68312;53.502;10.030;2023-10-13T08:05:52;100356.56;;;16.62
77728;BMP280;68312;53.502;10.030;2023-10-13T08:08:32;100352.03;;;16.59
77728;BMP280;68312;53.502;10.030;2023-10-13T08:11:11;100341.00;;;16.57
77728;BMP280;68312;53.502;10.030;2023-10-13T08:13:57;100333.03;;;16.57
77728;BMP280;68312;53.502;10.030;2023-10-13T08:16:25;100328.88;;;16.56
77728;BMP280;68312;53.502;10.030;2023-10-13T08:19:16;100327.78;;;16.60
77728;BMP280;68312;53.502;10.030;2023-10-13T08:21:47;100322.84;;;16.62
77728;BMP280;68312;53.502;10.030;2023-10-13T08:24:39;100314.97;;;16.66
77728;BMP280;68312;53.502;10.030;2023-10-13T08:27:06;100308.94;;;16.72
77728;BMP280;68312;53.502;10.030;2023-10-13T08:29:52;100304.03;;;16.74
77728;BMP280;68312;53.502;10.030;2023-10-13T08:32:24;100303.69;;;16.79
77728;BMP280;68312;53.502;10.030;2023-10-13T08:34:54;100310.47;;;16.77
77728;BMP280;68312;53.502;10.030;2023-10-13T08:37:23;100318.06;;;16.75
77728;BMP280;68312;53.502;10.030;2023-10-13T08:39:50;100325.22;;;16.71
77728;BMP280;68312;53.502;10.030;2023-10-13T08:42:38;100334.31;;;16.70
77728;BMP280;68312;53.502;10.030;2023-10-13T08:45:13;100305.13;;;16.70
77728;BMP280;68312;53.502;10.030;2023-10-13T08:48:07;100304.34;;;16.66
77728;BMP280;68312;53.502;10.030;2023-10-13T08:50:39;100302.06;;;16.64
77728;BMP280;68312;53.502;10.030;2023-10-13T08:53:27;100290.34;;;16.65
77728;BMP280;68312;53.502;10.030;2023-10-13T08:56:07;100297.53;;;16.65
77728;BMP280;68312;53.502;10.030;2023-10-13T08:58:35;100300.19;;;16.65
77728;BMP280;68312;53.502;10.030;2023-10-13T09:01:23;100305.50;;;16.65
77728;BMP280;68312;53.502;10.030;2023-10-13T09:04:17;100296.44;;;16.69
77728;BMP280;68312;53.502;10.030;2023-10-13T09:06:51;100294.09;;;16.64
77728;BMP280;68312;53.502;10.030;2023-10-13T09:09:32;100293.78;;;16.69
77728;BMP280;68312;53.502;10.030;2023-10-13T09:12:26;100291.53;;;16.75
77728;BMP280;68312;53.502;10.030;2023-10-13T09:15:02;100304.47;;;16.80
77728;BMP280;68312;53.502;10.030;2023-10-13T09:17:45;100294.28;;;16.92
77728;BMP280;68312;53.502;10.030;2023-10-13T09:20:38;100308.44;;;17.06
77728;BMP280;68312;53.502;10.030;2023-10-13T09:23:11;100305.44;;;17.14
77728;BMP280;68312;53.502;10.030;2023-10-13T09:25:45;100302.09;;;17.24
77728;BMP280;68312;53.502;10.030;2023-10-13T09:28:23;100298.69;;;17.24
77728;BMP280;68312;53.502;10.030;2023-10-13T09:30:54;100295.66;;;17.25
77728;BMP280;68312;53.502;10.030;2023-10-13T09:33:27;100316.19;;;17.28
77728;BMP280;68312;53.502;10.030;2023-10-13T09:35:58;100317.69;;;17.29
77728;BMP280;68312;53.502;10.030;2023-10-13T09:38:28;100315.13;;;17.43
77728;BMP280;68312;53.502;10.030;2023-10-13T09:40:56;100318.16;;;17.48
77728;BMP280;68312;53.502;10.030;2023-10-13T09:43:24;100321.22;;;17.50
77728;BMP280;68312;53.502;10.030;2023-10-13T09:46:00;100336.41;;;17.53
77728;BMP280;68312;53.502;10.030;2023-10-13T09:48:39;100333.81;;;17.60
77728;BMP280;68312;53.502;10.030;2023-10-13T09:51:06;100322.75;;;17.55
77728;BMP280;68312;53.502;10.030;2023-10-13T09:53:37;100328.03;;;17.48
77728;BMP280;68312;53.502;10.030;2023-10-13T09:56:12;100318.16;;;17.48
77728;BMP280;68312;53.502;10.030;2023-10-13T09:58:53;100320.09;;;17.55
77728;BMP280;68312;53.502;10.030;2023-10-13T10:01:32;100325.00;;;17.49
77728;BMP280;68312;53.502;10.030;2023-10-13T10:04:09;100308.69;;;17.47
77728;BMP280;68312;53.502;10.030;2023-10-13T10:06:54;100283.63;;;17.48
77728;BMP280;68312;53.502;10.030;2023-10-13T10:09:29;100279.88;;;17.49
77728;BMP280;68312;53.502;10.030;2023-10-13T10:18:17;100266.59;;;17.53
77728;BMP280;68312;53.502;10.030;2023-10-13T10:20:47;100259.41;;;17.53
77728;BMP280;68312;53.502;10.030;2023-10-13T10:23:27;100265.47;;;17.57
77728;BMP280;68312;53.502;10.030;2023-10-13T10:26:10;100235.19;;;17.68
77728;BMP280;68312;53.502;10.030;2023-10-13T10:28:42;100236.69;;;17.80
77728;BMP280;68312;53.502;10.030;2023-10-13T10:31:09;100242.03;;;17.87
77728;BMP280;68312;53.502;10.030;2023-10-13T10:33:40;100248.88;;;17.94
77728;BMP280;68312;53.502;10.030;2023-10-13T10:36:07;100242.44;;;17.95
77728;BMP280;68312;53.502;10.030;2023-10-13T10:38:54;100236.75;;;18.00
77728;BMP280;68312;53.502;10.030;2023-10-13T10:41:30;100238.69;;;18.10
77728;BMP280;68312;53.502;10.030;2023-10-13T10:44:12;100234.88;;;18.18
77728;BMP280;68312;53.502;10.030;2023-10-13T10:46:41;100235.63;;;18.25
77728;BMP280;68312;53.502;10.030;2023-10-13T10:49:07;100232.97;;;18.32
77728;BMP280;68312;53.502;10.030;2023-10-13T10:51:36;100224.59;;;18.47
77728;BMP280;68312;53.502;10.030;2023-10-13T10:54:19;100222.34;;;18.63
77728;BMP280;68312;53.502;10.030;2023-10-13T10:56:46;100228.00;;;18.75
77728;BMP280;68312;53.502;10.030;2023-10-13T10:59:18;100221.91;;;18.82
77728;BMP280;68312;53.502;10.030;2023-10-13T11:01:45;100223.75;;;18.98
77728;BMP280;68312;53.502;10.030;2023-10-13T11:04:18;100238.56;;;19.03
77728;BMP280;68312;53.502;10.030;2023-10-13T11:06:50;100231.69;;;19.12
77728;BMP280;68312;53.502;10.030;2023-10-13T11:09:29;100228.28;;;19.08
77728;BMP280;68312;53.502;10.030;2023-10-13T11:14:29;100225.09;;;19.41
77728;BMP280;68312;53.502;10.030;2023-10-13T11:16:56;100208.59;;;19.66
77728;BMP280;68312;53.502;10.030;2023-10-13T11:19:37;100209.75;;;19.62
77728;BMP280;68312;53.502;10.030;2023-10-13T11:22:14;100203.16;;;19.80
77728;BMP280;68312;53.502;10.030;2023-10-13T11:25:25;100187.50;;;19.89
77728;BMP280;68312;53.502;10.030;2023-10-13T11:27:58;100182.91;;;19.86
77728;BMP280;68312;53.502;10.030;2023-10-13T11:30:26;100171.00;;;20.04
77728;BMP280;68312;53.502;10.030;2023-10-13T11:33:08;100185.00;;;20.51
77728;BMP280;68312;53.502;10.030;2023-10-13T11:35:36;100181.91;;;20.56
77728;BMP280;68312;53.502;10.030;2023-10-13T11:38:17;100181.47;;;20.61
77728;BMP280;68312;53.502;10.030;2023-10-13T11:40:52;100198.75;;;20.82
77728;BMP280;68312;53.502;10.030;2023-10-13T11:43:27;100184.81;;;20.98
77728;BMP280;68312;53.502;10.030;2023-10-13T11:45:53;100204.09;;;21.15
77728;BMP280;68312;53.502;10.030;2023-10-13T11:48:39;100194.72;;;21.01
77728;BMP280;68312;53.502;10.030;2023-10-13T11:51:08;100179.19;;;20.92
77728;BMP280;68312;53.502;10.030;2023-10-13T11:53:44;100167.22;;;21.55
77728;BMP280;68312;53.502;10.030;2023-10-13T11:56:17;100180.25;;;21.54
77728;BMP280;68312;53.502;10.030;2023-10-13T11:58:46;100189.50;;;21.20
77728;BMP280;68312;53.502;10.030;2023-10-13T12:01:13;100165.84;;;20.92
77728;BMP280;68312;53.502;10.030;2023-10-13T12:03:42;100168.19;;;20.87
77728;BMP280;68312;53.502;10.030;2023-10-13T12:06:28;100136.69;;;20.75
77728;BMP280;68312;53.502;10.030;2023-10-13T12:09:07;100164.72;;;20.60
77728;BMP280;68312;53.502;10.030;2023-10-13T12:11:46;100154.84;;;20.54
77728;BMP280;68312;53.502;10.030;2023-10-13T12:14:17;100149.09;;;20.55
77728;BMP280;68312;53.502;10.030;2023-10-13T12:17:01;100157.94;;;20.82
77728;BMP280;68312;53.502;10.030;2023-10-13T12:19:29;100173.56;;;21.13
77728;BMP280;68312;53.502;10.030;2023-10-13T12:21:56;100186.06;;;21.49
77728;BMP280;68312;53.502;10.030;2023-10-13T12:24:23;100171.00;;;21.58
77728;BMP280;68312;53.502;10.030;2023-10-13T12:27:05;100159.91;;;21.59
77728;BMP280;68312;53.502;10.030;2023-10-13T12:29:50;100165.94;;;21.41
77728;BMP280;68312;53.502;10.030;2023-10-13T12:32:17;100171.38;;;21.34
77728;BMP280;68312;53.502;10.030;2023-10-13T12:34:48;100154.81;;;21.16
77728;BMP280;68312;53.502;10.030;2023-10-13T12:37:31;100166.50;;;21.00
77728;BMP280;68312;53.502;10.030;2023-10-13T12:40:18;100157.91;;;20.85
77728;BMP280;68312;53.502;10.030;2023-10-13T12:43:04;100168.72;;;20.75
77728;BMP280;68312;53.502;10.030;2023-10-13T12:46:08;100156.09;;;20.79
77728;BMP280;68312;53.502;10.030;2023-10-13T12:48:52;100137.34;;;20.82
77728;BMP280;68312;53.502;10.030;2023-10-13T12:51:21;100125.16;;;20.81
77728;BMP280;68312;53.502;10.030;2023-10-13T12:53:56;100122.53;;;20.78
77728;BMP280;68312;53.502;10.030;2023-10-13T12:56:30;100127.53;;;20.76
77728;BMP280;68312;53.502;10.030;2023-10-13T12:58:55;100128.63;;;20.78
77728;BMP280;68312;53.502;10.030;2023-10-13T13:01:24;100119.84;;;20.78
77728;BMP280;68312;53.502;10.030;2023-10-13T13:03:52;100119.47;;;20.79
77728;BMP280;68312;53.502;10.030;2023-10-13T13:06:22;100127.72;;;20.92
77728;BMP280;68312;53.502;10.030;2023-10-13T13:08:54;100101.50;;;21.09
77728;BMP280;68312;53.502;10.030;2023-10-13T13:11:21;100115.06;;;21.22
77728;BMP280;68312;53.502;10.030;2023-10-13T13:13:47;100106.72;;;21.16
77728;BMP280;68312;53.502;10.030;2023-10-13T13:16:17;100106.31;;;21.21
77728;BMP280;68312;53.502;10.030;2023-10-13T13:18:47;100099.81;;;21.45
77728;BMP280;68312;53.502;10.030;2023-10-13T13:21:12;100107.53;;;21.84
77728;BMP280;68312;53.502;10.030;2023-10-13T13:23:45;100112.09;;;22.45
77728;BMP280;68312;53.502;10.030;2023-10-13T13:26:12;100117.41;;;22.83
77728;BMP280;68312;53.502;10.030;2023-10-13T13:28:47;100103.47;;;22.91
77728;BMP280;68312;53.502;10.030;2023-10-13T13:31:20;100104.53;;;22.94
77728;BMP280;68312;53.502;10.030;2023-10-13T13:33:54;100110.69;;;22.75
77728;BMP280;68312;53.502;10.030;2023-10-13T13:36:21;100094.97;;;22.93
77728;BMP280;68312;53.502;10.030;2023-10-13T13:38:47;100093.69;;;23.16
77728;BMP280;68312;53.502;10.030;2023-10-13T13:41:17;100085.94;;;23.03
77728;BMP280;68312;53.502;10.030;2023-10-13T13:43:49;100084.28;;;22.58
77728;BMP280;68312;53.502;10.030;2023-10-13T13:46:22;100078.09;;;22.26
77728;BMP280;68312;53.502;10.030;2023-10-13T13:49:05;100072.41;;;22.05
77728;BMP280;68312;53.502;10.030;2023-10-13T13:51:32;100046.28;;;21.71
77728;BMP280;68312;53.502;10.030;2023-10-13T13:53:59;100048.72;;;21.62
77728;BMP280;68312;53.502;10.030;2023-10-13T13:56:25;100055.31;;;21.57
77728;BMP280;68312;53.502;10.030;2023-10-13T13:58:52;100060.44;;;21.49
77728;BMP280;68312;53.502;10.030;2023-10-13T14:01:19;100067.38;;;21.43
77728;BMP280;68312;53.502;10.030;2023-10-13T14:03:51;100072.53;;;21.34
77728;BMP280;68312;53.502;10.030;2023-10-13T14:06:18;100059.59;;;21.29
77728;BMP280;68312;53.502;10.030;2023-10-13T14:08:56;100062.38;;;21.22
77728;BMP280;68312;53.502;10.030;2023-10-13T14:11:27;100060.22;;;21.14
77728;BMP280;68312;53.502;10.030;2023-10-13T14:14:07;100056.22;;;21.03
77728;BMP280;68312;53.502;10.030;2023-10-13T14:16:43;100038.94;;;20.84
77728;BMP280;68312;53.502;10.030;2023-10-13T14:19:13;100021.84;;;20.78
77728;BMP280;68312;53.502;10.030;2023-10-13T14:21:55;100006.69;;;20.72
77728;BMP280;68312;53.502;10.030;2023-10-13T14:24:22;100018.19;;;20.69
77728;BMP280;68312;53.502;10.030;2023-10-13T14:26:57;100015.91;;;20.68
77728;BMP280;68312;53.502;10.030;2023-10-13T14:29:33;100028.59;;;20.60
77728;BMP280;68312;53.502;10.030;2023-10-13T14:32:08;100025.97;;;20.57
77728;BMP280;68312;53.502;10.030;2023-10-13T14:34:41;100006.59;;;20.53
77728;BMP280;68312;53.502;10.030;2023-10-13T14:37:09;100001.22;;;20.56